createdAt,value
2018-12-04T00:01:48.731Z,0.00
2018-12-04T00:02:58.983Z,0.00
2018-12-04T00:07:06.542Z,0.00
2018-12-04T00:09:19.747Z,0.00
2018-12-04T00:10:30.124Z,0.00
2018-12-04T00:11:29.619Z,0.00
2018-12-04T00:12:18.109Z,0.00
2018-12-04T00:15:38.686Z,0.00
2018-12-04T00:18:04.043Z,0.00
2018-12-04T00:24:50.996Z,0.00
2018-12-04T00:26:02.911Z,0.00
2018-12-04T00:29:06.735Z,0.00
2018-12-04T00:30:17.691Z,0.00
2018-12-04T00:31:07.411Z,0.00
2018-12-04T00:32:07.374Z,0.00
2018-12-04T00:33:15.333Z,0.00
2018-12-04T00:35:28.426Z,0.00
2018-12-04T00:36:38.102Z,0.00
2018-12-04T00:39:37.491Z,0.00
2018-12-04T00:43:44.505Z,0.00
2018-12-04T00:44:56.046Z,0.00
2018-12-04T00:46:16.779Z,0.00
2018-12-04T00:46:55.986Z,0.00
2018-12-04T00:51:11.790Z,0.00
2018-12-04T00:52:11.627Z,0.00
2018-12-04T00:53:19.313Z,0.00
2018-12-04T00:58:51.315Z,0.00
2018-12-04T01:00:02.505Z,0.00
2018-12-04T01:01:00.699Z,0.00
2018-12-04T01:02:00.932Z,0.00
2018-12-04T01:03:01.709Z,0.00
2018-12-04T01:06:08.588Z,0.00
2018-12-04T01:07:18.328Z,0.00
2018-12-04T01:08:17.326Z,0.00
2018-12-04T01:09:18.997Z,0.00
2018-12-04T01:10:23.056Z,0.00
2018-12-04T01:11:08.406Z,0.00
2018-12-04T01:12:09.217Z,0.00
2018-12-04T01:13:08.215Z,0.00
2018-12-04T01:14:20.424Z,0.00
2018-12-04T01:15:10.086Z,0.00
2018-12-04T01:18:18.390Z,0.00
2018-12-04T01:19:31.268Z,0.00
2018-12-04T01:20:18.253Z,0.00
2018-12-04T01:21:19.171Z,0.00
2018-12-04T01:22:18.225Z,0.00
2018-12-04T01:23:18.232Z,0.00
2018-12-04T01:24:18.210Z,0.00
2018-12-04T01:25:18.239Z,0.00
2018-12-04T01:26:19.183Z,0.00
2018-12-04T01:27:18.229Z,0.00
2018-12-04T01:28:30.291Z,0.00
2018-12-04T01:29:18.232Z,0.00
2018-12-04T01:30:29.687Z,0.00
2018-12-04T01:31:28.775Z,0.00
2018-12-04T01:32:28.984Z,0.00
2018-12-04T01:34:32.284Z,0.00
2018-12-04T01:35:45.321Z,0.00
2018-12-04T01:36:43.915Z,0.00
2018-12-04T01:37:32.249Z,0.00
2018-12-04T01:38:43.434Z,0.00
2018-12-04T01:39:33.170Z,0.00
2018-12-04T01:40:44.337Z,0.00
2018-12-04T01:41:42.985Z,0.00
2018-12-04T01:42:44.273Z,0.00
2018-12-04T01:44:46.739Z,0.00
2018-12-04T01:46:58.264Z,0.00
2018-12-04T01:47:57.798Z,0.00
2018-12-04T01:49:07.378Z,0.00
2018-12-04T01:50:09.146Z,0.00
2018-12-04T01:51:06.675Z,0.00
2018-12-04T01:53:59.026Z,0.00
2018-12-04T01:55:09.016Z,0.00
2018-12-04T01:56:10.050Z,0.00
2018-12-04T01:57:07.089Z,0.00
2018-12-04T01:58:07.238Z,0.00
2018-12-04T01:59:07.110Z,0.00
2018-12-04T02:01:14.599Z,0.00
2018-12-04T02:02:14.229Z,0.00
2018-12-04T02:03:14.194Z,0.00
2018-12-04T02:04:26.032Z,0.00
2018-12-04T02:05:26.395Z,0.00
2018-12-04T02:06:14.178Z,0.00
2018-12-04T02:08:26.865Z,0.00
2018-12-04T02:10:36.962Z,0.00
2018-12-04T02:14:46.782Z,0.00
2018-12-04T02:16:20.045Z,0.00
2018-12-04T02:16:45.791Z,0.00
2018-12-04T02:17:55.605Z,0.00
2018-12-04T02:18:56.488Z,0.00
2018-12-04T02:19:54.714Z,0.00
2018-12-04T02:22:11.189Z,0.00
2018-12-04T02:23:11.152Z,0.00
2018-12-04T02:26:10.454Z,0.00
2018-12-04T02:27:10.284Z,0.00
2018-12-04T02:28:21.013Z,0.00
2018-12-04T02:29:10.304Z,0.00
2018-12-04T02:30:38.212Z,0.00
2018-12-04T02:31:20.246Z,0.00
2018-12-04T02:34:06.822Z,0.00
2018-12-04T02:36:17.911Z,0.00
2018-12-04T02:37:27.055Z,0.00
2018-12-04T02:38:17.035Z,0.00
2018-12-04T02:39:27.529Z,0.00
2018-12-04T02:40:28.025Z,0.00
2018-12-04T02:43:15.589Z,0.00
2018-12-04T02:44:27.155Z,0.00
2018-12-04T02:45:15.556Z,0.00
2018-12-04T02:46:24.126Z,0.00
2018-12-04T02:47:26.309Z,0.00
2018-12-04T02:48:15.383Z,0.00
2018-12-04T02:49:24.201Z,0.00
2018-12-04T02:50:24.086Z,0.00
2018-12-04T02:51:15.351Z,0.00
2018-12-04T02:52:26.223Z,0.00
2018-12-04T02:53:27.825Z,0.00
2018-12-04T02:56:14.787Z,0.00
2018-12-04T02:57:23.223Z,0.00
2018-12-04T02:58:13.652Z,0.00
2018-12-04T02:59:13.775Z,0.00
2018-12-04T03:00:32.989Z,0.00
2018-12-04T03:01:13.567Z,0.00
2018-12-04T03:02:13.578Z,0.00
2018-12-04T03:03:23.016Z,0.00
2018-12-04T03:04:13.521Z,0.00
2018-12-04T03:05:14.372Z,0.00
2018-12-04T03:06:15.270Z,0.00
2018-12-04T03:07:13.540Z,0.00
2018-12-04T03:08:14.564Z,0.00
2018-12-04T03:09:13.456Z,0.00
2018-12-04T03:10:14.467Z,0.00
2018-12-04T03:11:14.439Z,0.00
2018-12-04T03:12:13.409Z,0.00
2018-12-04T03:13:13.397Z,0.00
2018-12-04T03:14:13.390Z,0.00
2018-12-04T03:15:14.316Z,0.00
2018-12-04T03:16:15.371Z,0.00
2018-12-04T03:17:13.353Z,0.00
2018-12-04T03:18:13.344Z,0.00
2018-12-04T03:19:13.330Z,0.00
2018-12-04T03:20:13.323Z,0.00
2018-12-04T03:21:13.321Z,0.00
2018-12-04T03:22:13.318Z,0.00
2018-12-04T03:23:13.287Z,0.00
2018-12-04T03:24:13.274Z,0.00
2018-12-04T03:25:24.092Z,0.00
2018-12-04T03:26:23.078Z,0.00
2018-12-04T03:27:13.295Z,0.00
2018-12-04T03:28:13.962Z,0.00
2018-12-04T03:29:13.430Z,0.00
2018-12-04T03:30:13.228Z,0.00
2018-12-04T03:31:13.214Z,0.00
2018-12-04T03:32:13.940Z,0.00
2018-12-04T03:33:13.192Z,0.00
2018-12-04T03:34:13.171Z,0.00
2018-12-04T03:35:13.189Z,0.00
2018-12-04T03:36:13.140Z,0.00
2018-12-04T03:37:13.890Z,0.00
2018-12-04T03:38:24.551Z,0.00
2018-12-04T03:41:11.140Z,0.00
2018-12-04T03:42:23.026Z,0.00
2018-12-04T03:43:21.408Z,0.00
2018-12-04T03:44:21.881Z,0.00
2018-12-04T03:49:02.300Z,0.00
2018-12-04T03:50:02.070Z,0.00
2018-12-04T03:51:02.040Z,0.00
2018-12-04T03:52:02.011Z,0.00
2018-12-04T03:53:02.892Z,0.00
2018-12-04T03:54:01.922Z,0.00
2018-12-04T03:55:03.124Z,0.00
2018-12-04T03:56:02.637Z,0.00
2018-12-04T03:57:12.760Z,0.00
2018-12-04T03:58:02.693Z,0.00
2018-12-04T03:59:10.558Z,0.00
2018-12-04T04:00:01.963Z,0.00
2018-12-04T04:01:10.689Z,0.00
2018-12-04T04:03:47.071Z,0.00
2018-12-04T04:04:48.071Z,0.00
2018-12-04T04:05:48.815Z,0.00
2018-12-04T04:06:58.598Z,0.00
2018-12-04T04:10:50.228Z,0.00
2018-12-04T04:11:50.984Z,0.00
2018-12-04T04:12:51.063Z,0.00
2018-12-04T04:15:44.052Z,0.00
2018-12-04T04:16:13.516Z,0.00
2018-12-04T04:17:15.484Z,0.00
2018-12-04T04:18:23.960Z,0.00
2018-12-04T04:19:22.380Z,0.00
2018-12-04T04:20:27.128Z,0.00
2018-12-04T04:21:25.546Z,0.00
2018-12-04T04:22:29.485Z,0.00
2018-12-04T04:23:12.643Z,0.00
2018-12-04T04:24:12.664Z,0.00
2018-12-04T04:27:09.510Z,0.00
2018-12-04T04:29:22.774Z,0.00
2018-12-04T04:30:48.025Z,0.00
2018-12-04T04:31:23.126Z,0.00
2018-12-04T04:32:23.317Z,0.00
2018-12-04T04:33:23.150Z,0.00
2018-12-04T04:34:22.803Z,0.00
2018-12-04T04:35:23.132Z,0.00
2018-12-04T04:37:41.215Z,0.00
2018-12-04T04:38:40.308Z,0.00
2018-12-04T04:39:40.331Z,0.00
2018-12-04T04:40:40.274Z,0.00
2018-12-04T04:41:52.070Z,0.00
2018-12-04T04:42:40.308Z,0.00
2018-12-04T04:43:40.191Z,0.00
2018-12-04T04:44:41.333Z,0.00
2018-12-04T04:45:44.852Z,0.00
2018-12-04T04:46:40.469Z,0.00
2018-12-04T04:47:40.726Z,0.00
2018-12-04T04:48:50.862Z,0.00
2018-12-04T04:49:44.784Z,0.00
2018-12-04T04:50:50.338Z,0.00
2018-12-04T04:51:55.041Z,0.00
2018-12-04T04:52:50.579Z,0.00
2018-12-04T04:53:40.885Z,0.00
2018-12-04T04:54:40.858Z,0.00
2018-12-04T04:55:50.520Z,0.00
2018-12-04T04:56:50.187Z,0.00
2018-12-04T04:57:48.763Z,0.00
2018-12-04T05:00:21.838Z,0.00
2018-12-04T05:01:33.364Z,0.00
2018-12-04T05:03:45.076Z,0.00
2018-12-04T05:04:46.623Z,0.00
2018-12-04T05:05:56.004Z,0.00
2018-12-04T05:06:58.906Z,0.00
2018-12-04T05:07:55.490Z,0.00
2018-12-04T05:08:53.680Z,0.00
2018-12-04T05:09:54.762Z,0.00
2018-12-04T05:10:45.300Z,0.00
2018-12-04T05:12:00.873Z,0.00
2018-12-04T05:12:45.136Z,0.00
2018-12-04T05:13:58.891Z,0.00
2018-12-04T05:17:55.165Z,0.00
2018-12-04T05:19:41.772Z,0.00
2018-12-04T05:20:42.535Z,0.00
2018-12-04T05:21:42.593Z,0.00
2018-12-04T05:22:41.357Z,0.00
2018-12-04T05:23:42.408Z,0.00
2018-12-04T05:24:41.314Z,0.00
2018-12-04T05:25:53.965Z,0.00
2018-12-04T05:26:43.234Z,0.00
2018-12-04T05:27:41.417Z,0.00
2018-12-04T05:28:46.153Z,0.00
2018-12-04T05:29:52.672Z,0.00
2018-12-04T05:32:24.864Z,0.00
2018-12-04T05:33:34.723Z,0.00
2018-12-04T05:34:26.876Z,0.00
2018-12-04T05:35:17.763Z,0.00
2018-12-04T05:36:19.285Z,0.00
2018-12-04T05:38:52.551Z,0.00
2018-12-04T05:39:46.097Z,0.00
2018-12-04T05:41:02.462Z,0.00
2018-12-04T05:41:45.201Z,0.00
2018-12-04T05:44:15.625Z,0.00
2018-12-04T05:45:15.070Z,0.00
2018-12-04T05:46:15.011Z,0.00
2018-12-04T05:47:14.888Z,0.00
2018-12-04T05:49:42.975Z,0.00
2018-12-04T05:52:07.173Z,0.00
2018-12-04T05:53:22.357Z,0.00
2018-12-04T05:55:58.209Z,0.00
2018-12-04T05:58:15.366Z,0.00
2018-12-04T05:59:16.259Z,0.00
2018-12-04T06:00:27.551Z,0.00
2018-12-04T06:04:17.092Z,0.00
2018-12-04T06:05:17.779Z,0.00
2018-12-04T06:06:28.356Z,0.00
2018-12-04T06:07:28.567Z,0.00
2018-12-04T06:09:52.957Z,0.00
2018-12-04T06:11:01.927Z,0.00
2018-12-04T06:11:49.081Z,0.00
2018-12-04T06:12:52.049Z,0.00
2018-12-04T06:13:58.594Z,0.00
2018-12-04T06:14:49.031Z,0.00
2018-12-04T06:15:49.888Z,0.00
2018-12-04T06:16:50.898Z,0.00
2018-12-04T06:19:08.424Z,0.00
2018-12-04T06:20:08.405Z,0.00
2018-12-04T06:21:10.246Z,0.00
2018-12-04T06:22:17.608Z,0.00
2018-12-04T06:23:09.943Z,0.00
2018-12-04T06:24:09.227Z,0.00
2018-12-04T06:25:09.228Z,0.00
2018-12-04T06:26:22.573Z,0.00
2018-12-04T06:27:09.058Z,0.00
2018-12-04T06:28:17.837Z,0.00
2018-12-04T06:30:31.444Z,0.00
2018-12-04T06:31:42.846Z,0.00
2018-12-04T06:32:32.260Z,0.00
2018-12-04T06:33:31.280Z,0.00
2018-12-04T06:34:31.263Z,4.00
2018-12-04T06:35:31.602Z,4.00
2018-12-04T06:36:41.411Z,4.00
2018-12-04T06:37:31.196Z,0.00
2018-12-04T06:38:32.148Z,0.00
2018-12-04T06:39:31.121Z,4.00
2018-12-04T06:40:31.091Z,4.00
2018-12-04T06:41:31.989Z,8.00
2018-12-04T06:42:31.071Z,4.00
2018-12-04T06:43:41.108Z,8.00
2018-12-04T06:44:31.241Z,4.00
2018-12-04T06:45:32.051Z,4.00
2018-12-04T06:46:31.968Z,4.00
2018-12-04T06:47:31.724Z,4.00
2018-12-04T06:48:31.021Z,8.00
2018-12-04T06:49:41.910Z,8.00
2018-12-04T06:50:31.789Z,8.00
2018-12-04T06:51:32.109Z,8.00
2018-12-04T06:52:31.096Z,8.00
2018-12-04T06:53:30.951Z,8.00
2018-12-04T06:54:31.064Z,12.00
2018-12-04T06:55:31.778Z,20.00
2018-12-04T06:56:30.917Z,20.00
2018-12-04T06:57:31.768Z,20.00
2018-12-04T06:58:31.902Z,16.00
2018-12-04T06:59:31.000Z,16.00
2018-12-04T07:00:32.071Z,20.00
2018-12-04T07:02:42.970Z,20.00
2018-12-04T07:03:43.307Z,20.00
2018-12-04T07:04:57.386Z,24.00
2018-12-04T07:05:42.700Z,20.00
2018-12-04T07:06:42.441Z,28.00
2018-12-04T07:07:42.473Z,28.00
2018-12-04T07:08:42.927Z,32.00
2018-12-04T07:09:42.436Z,20.00
2018-12-04T07:12:28.624Z,20.00
2018-12-04T07:14:50.339Z,12.00
2018-12-04T07:17:06.554Z,20.00
2018-12-04T07:18:12.638Z,20.00
2018-12-04T07:21:21.441Z,32.00
2018-12-04T07:23:34.425Z,32.00
2018-12-04T07:24:33.974Z,28.00
2018-12-04T07:25:46.385Z,32.00
2018-12-04T07:27:47.452Z,28.00
2018-12-04T07:30:10.583Z,32.00
2018-12-04T07:32:25.614Z,40.00
2018-12-04T07:37:29.385Z,40.00
2018-12-04T07:39:54.332Z,24.00
2018-12-04T07:42:58.357Z,28.00
2018-12-04T07:46:31.012Z,32.00
2018-12-04T07:47:17.135Z,32.00
2018-12-04T07:50:04.332Z,36.00
2018-12-04T07:54:09.713Z,40.00
2018-12-04T07:55:07.486Z,36.00
2018-12-04T07:56:16.633Z,32.00
2018-12-04T07:57:22.549Z,28.00
2018-12-04T07:58:06.633Z,32.00
2018-12-04T08:00:33.496Z,40.00
2018-12-04T08:02:46.451Z,48.00
2018-12-04T08:06:40.284Z,108.00
2018-12-04T08:12:12.840Z,92.00
2018-12-04T08:13:25.966Z,96.00
2018-12-04T08:14:32.409Z,96.00
2018-12-04T08:16:47.603Z,200.00
2018-12-04T08:18:52.706Z,244.00
2018-12-04T08:21:50.918Z,340.00
2018-12-04T08:22:55.729Z,404.00
2018-12-04T08:23:50.855Z,408.00
2018-12-04T08:25:02.820Z,464.00
2018-12-04T08:27:42.271Z,424.00
2018-12-04T08:28:51.232Z,400.00
2018-12-04T08:29:52.978Z,368.00
2018-12-04T08:30:42.720Z,336.00
2018-12-04T08:31:41.711Z,360.00
2018-12-04T08:32:55.493Z,368.00
2018-12-04T08:34:54.172Z,360.00
2018-12-04T08:36:04.693Z,428.00
2018-12-04T08:36:56.187Z,344.00
2018-12-04T08:37:54.123Z,252.00
2018-12-04T08:39:13.011Z,224.00
2018-12-04T08:43:08.971Z,212.00
2018-12-04T08:45:54.192Z,132.00
2018-12-04T08:46:53.963Z,168.00
2018-12-04T08:48:03.411Z,204.00
2018-12-04T08:51:53.435Z,184.00
2018-12-04T08:53:03.650Z,168.00
2018-12-04T08:53:54.336Z,172.00
2018-12-04T08:56:15.305Z,152.00
2018-12-04T08:57:24.769Z,148.00
2018-12-04T08:58:30.593Z,136.00
2018-12-04T09:03:06.268Z,228.00
2018-12-04T09:03:59.339Z,240.00
2018-12-04T09:05:09.341Z,268.00
2018-12-04T09:06:08.971Z,228.00
2018-12-04T09:07:15.153Z,204.00
2018-12-04T09:08:18.180Z,164.00
2018-12-04T09:08:57.155Z,164.00
2018-12-04T09:11:16.988Z,180.00
2018-12-04T09:13:31.746Z,168.00
2018-12-04T09:15:46.085Z,196.00
2018-12-04T09:16:56.267Z,216.00
2018-12-04T09:18:55.722Z,384.00
2018-12-04T09:19:57.361Z,448.00
2018-12-04T09:21:05.056Z,576.00
2018-12-04T09:21:57.303Z,736.00
2018-12-04T09:25:52.627Z,952.00
2018-12-04T09:26:54.537Z,1020.00
2018-12-04T09:28:06.743Z,1080.00
2018-12-04T09:29:03.816Z,960.00
2018-12-04T09:31:52.502Z,904.00
2018-12-04T09:34:56.853Z,640.00
2018-12-04T09:36:08.289Z,432.00
2018-12-04T09:37:06.220Z,320.00
2018-12-04T09:38:12.355Z,240.00
2018-12-04T09:39:08.533Z,240.00
2018-12-04T09:42:26.492Z,464.00
2018-12-04T09:45:54.469Z,480.00
2018-12-04T09:48:51.149Z,452.00
2018-12-04T09:51:10.189Z,612.00
2018-12-04T09:55:26.487Z,496.00
2018-12-04T09:56:38.727Z,556.00
2018-12-04T09:57:26.517Z,660.00
2018-12-04T09:58:26.689Z,724.00
2018-12-04T09:59:39.708Z,792.00
2018-12-04T10:01:56.585Z,704.00
2018-12-04T10:05:15.466Z,720.00
2018-12-04T10:06:16.246Z,804.00
2018-12-04T10:09:13.619Z,796.00
2018-12-04T10:10:22.668Z,852.00
2018-12-04T10:11:13.406Z,920.00
2018-12-04T10:12:13.636Z,852.00
2018-12-04T10:13:24.852Z,720.00
2018-12-04T10:18:21.052Z,432.00
2018-12-04T10:21:03.567Z,460.00
2018-12-04T10:22:12.748Z,420.00
2018-12-04T10:25:34.139Z,680.00
2018-12-04T10:26:43.125Z,620.00
2018-12-04T10:27:43.830Z,620.00
2018-12-04T10:28:34.034Z,524.00
2018-12-04T10:29:35.066Z,452.00
2018-12-04T10:30:43.768Z,412.00
2018-12-04T10:34:29.613Z,300.00
2018-12-04T10:35:23.272Z,268.00
2018-12-04T10:36:32.357Z,256.00
2018-12-04T10:42:06.522Z,380.00
2018-12-04T10:45:18.536Z,324.00
2018-12-04T10:47:27.320Z,292.00
2018-12-04T10:55:29.096Z,440.00
2018-12-04T10:58:30.872Z,712.00
2018-12-04T11:00:43.574Z,596.00
2018-12-04T11:02:52.019Z,416.00
2018-12-04T11:05:41.476Z,364.00
2018-12-04T11:08:42.573Z,356.00
2018-12-04T11:09:53.414Z,328.00
2018-12-04T11:10:54.148Z,304.00
2018-12-04T11:11:54.027Z,340.00
2018-12-04T11:12:53.861Z,420.00
2018-12-04T11:13:50.703Z,432.00
2018-12-04T11:14:50.851Z,528.00
2018-12-04T11:17:58.709Z,620.00
2018-12-04T11:19:55.482Z,804.00
2018-12-04T11:21:06.528Z,768.00
2018-12-04T11:22:05.239Z,652.00
2018-12-04T11:29:35.803Z,936.00
2018-12-04T11:30:34.748Z,988.00
2018-12-04T11:31:44.580Z,1012.00
2018-12-04T11:32:33.736Z,988.00
2018-12-04T11:33:42.504Z,940.00
2018-12-04T11:34:50.479Z,916.00
2018-12-04T11:35:44.946Z,900.00
2018-12-04T11:36:45.492Z,864.00
2018-12-04T11:41:36.235Z,912.00
2018-12-04T11:42:45.799Z,928.00
2018-12-04T11:48:14.246Z,1044.00
2018-12-04T11:50:24.723Z,972.00
2018-12-04T11:51:23.377Z,1084.00
2018-12-04T11:53:37.403Z,1080.00
2018-12-04T11:55:47.041Z,1232.00
2018-12-04T11:58:00.666Z,1104.00
2018-12-04T11:59:09.027Z,1000.00
2018-12-04T11:59:59.624Z,928.00
2018-12-04T12:00:59.717Z,864.00
2018-12-04T12:02:32.850Z,812.00
2018-12-04T12:03:00.704Z,772.00
2018-12-04T12:04:11.875Z,752.00
2018-12-04T12:05:08.025Z,732.00
2018-12-04T12:11:01.559Z,728.00
2018-12-04T12:13:34.712Z,752.00
2018-12-04T12:14:35.694Z,744.00
2018-12-04T12:16:45.911Z,728.00
2018-12-04T12:17:46.773Z,728.00
2018-12-04T12:18:55.470Z,724.00
2018-12-04T12:19:56.889Z,716.00
2018-12-04T12:25:49.917Z,876.00
2018-12-04T12:26:59.748Z,908.00
2018-12-04T12:28:00.832Z,888.00
2018-12-04T12:28:49.862Z,848.00
2018-12-04T12:30:02.404Z,816.00
2018-12-04T12:34:36.758Z,544.00
2018-12-04T12:35:46.153Z,488.00
2018-12-04T12:36:46.636Z,456.00
2018-12-04T12:45:34.764Z,428.00
2018-12-04T12:48:11.693Z,372.00
2018-12-04T12:49:58.997Z,456.00
2018-12-04T12:51:09.228Z,520.00
2018-12-04T12:51:59.669Z,584.00
2018-12-04T12:53:07.151Z,624.00
2018-12-04T12:55:22.717Z,700.00
2018-12-04T12:59:39.299Z,680.00
2018-12-04T13:02:39.552Z,756.00
2018-12-04T13:05:02.267Z,760.00
2018-12-04T13:07:27.768Z,812.00
2018-12-04T13:08:37.887Z,832.00
2018-12-04T13:09:28.051Z,872.00
2018-12-04T13:10:38.811Z,916.00
